Time;durP1;ratioP1;P1;durP2;ratioP2;P2;SDS_P1;SDS_P2;PMS_P1;PMS_P2;Temp;Humidity;BMP_temperature;BMP_pressure;BME280_temperature;BME280_humidity;BME280_pressure;Samples;Min_cycle;Max_cycle;Signal;HPM_P1;HPM_P2
2021/08/24 00:01:24;;;;;;;10.45;4.85;;;25.20;59.80;;;;;;6110537;28;81098;-64
2021/08/24 00:04:24;;;;;;;12.70;5.18;;;25.20;59.60;;;;;;6090273;28;81406;-64
2021/08/24 00:07:24;;;;;;;11.02;5.03;;;25.20;59.90;;;;;;6110267;28;80432;-64
2021/08/24 00:10:25;;;;;;;6.45;4.82;;;25.20;59.70;;;;;;6107119;28;80518;-64
2021/08/24 00:13:26;;;;;;;11.88;4.57;;;25.20;59.70;;;;;;6108622;28;80459;-64
2021/08/24 00:16:27;;;;;;;8.02;5.10;;;25.20;59.90;;;;;;6109166;28;80532;-64
2021/08/24 00:19:27;;;;;;;7.22;4.60;;;25.20;59.80;;;;;;6110681;28;80436;-64
2021/08/24 00:22:27;;;;;;;8.10;4.90;;;25.20;59.80;;;;;;6110213;28;81330;-64
2021/08/24 00:25:28;;;;;;;7.13;4.97;;;25.20;59.70;;;;;;6109746;28;82907;-64
2021/08/24 00:28:28;;;;;;;8.43;4.65;;;25.20;59.80;;;;;;6110323;28;80140;-64
2021/08/24 00:31:29;;;;;;;7.30;5.20;;;25.20;59.70;;;;;;6104924;28;80682;-64
2021/08/24 00:34:29;;;;;;;8.63;5.20;;;25.20;59.50;;;;;;6111102;28;80170;-64
2021/08/24 00:37:30;;;;;;;7.35;5.00;;;25.20;59.70;;;;;;6091119;28;82123;-64
2021/08/24 00:40:30;;;;;;;10.68;5.40;;;25.20;59.50;;;;;;6108314;28;80446;-64
2021/08/24 00:43:31;;;;;;;7.00;5.22;;;25.20;59.50;;;;;;6108285;28;81144;-64
2021/08/24 00:46:31;;;;;;;10.40;4.97;;;25.20;59.60;;;;;;6110367;28;80381;-64
2021/08/24 00:49:32;;;;;;;8.93;4.93;;;25.20;59.60;;;;;;6110233;28;80374;-64
2021/08/24 00:52:32;;;;;;;8.15;5.18;;;25.20;59.50;;;;;;6106816;28;80528;-64
2021/08/24 00:55:33;;;;;;;9.45;5.45;;;25.20;59.50;;;;;;6104919;28;80166;-64
2021/08/24 00:58:33;;;;;;;6.82;4.85;;;25.10;59.50;;;;;;6108626;28;81943;-64
2021/08/24 01:01:34;;;;;;;9.30;5.25;;;25.10;59.30;;;;;;6091456;28;80474;-64
2021/08/24 01:04:34;;;;;;;7.15;5.05;;;25.10;59.60;;;;;;6106926;28;80224;-64
2021/08/24 01:07:35;;;;;;;7.05;4.57;;;25.10;59.50;;;;;;6092073;28;82484;-64
2021/08/24 01:10:35;;;;;;;7.35;5.30;;;25.10;59.30;;;;;;6114173;28;80451;-64
2021/08/24 01:13:36;;;;;;;9.00;5.03;;;25.10;59.40;;;;;;6112826;28;82513;-64
2021/08/24 01:16:36;;;;;;;9.27;5.90;;;25.10;59.30;;;;;;6107647;28;81486;-64
2021/08/24 01:19:37;;;;;;;9.18;5.90;;;25.10;59.60;;;;;;6112060;28;80904;-64
2021/08/24 01:22:37;;;;;;;10.60;5.35;;;25.10;59.40;;;;;;6109586;28;80611;-64
2021/08/24 01:25:38;;;;;;;12.40;6.38;;;25.10;59.30;;;;;;6110721;28;80409;-64
2021/08/24 01:28:38;;;;;;;6.97;5.13;;;25.10;59.70;;;;;;6112135;28;80630;-63
2021/08/24 01:31:39;;;;;;;12.32;6.13;;;25.10;59.50;;;;;;6113289;28;80558;-64
2021/08/24 01:34:39;;;;;;;8.25;5.50;;;25.10;59.50;;;;;;6112007;28;81087;-64
2021/08/24 01:37:40;;;;;;;9.32;5.85;;;25.10;59.40;;;;;;6092311;28;80937;-64
2021/08/24 01:40:40;;;;;;;11.25;5.22;;;25.10;59.40;;;;;;6107593;28;80504;-63
2021/08/24 01:43:41;;;;;;;11.40;6.40;;;25.10;59.50;;;;;;6103572;28;81697;-64
2021/08/24 01:46:41;;;;;;;9.75;5.88;;;25.10;59.60;;;;;;6090405;28;81261;-64
2021/08/24 01:49:42;;;;;;;7.78;5.72;;;25.10;59.50;;;;;;6107250;28;81272;-64
2021/08/24 01:52:42;;;;;;;10.40;6.10;;;25.10;59.60;;;;;;6111105;28;80593;-63
2021/08/24 01:55:43;;;;;;;10.70;6.03;;;25.10;59.50;;;;;;6103265;28;80508;-64
2021/08/24 01:58:43;;;;;;;12.52;6.40;;;25.10;59.50;;;;;;6094646;28;80602;-64
2021/08/24 02:01:44;;;;;;;8.40;5.63;;;25.10;59.70;;;;;;6112883;28;80875;-64
2021/08/24 02:04:44;;;;;;;9.13;6.15;;;25.10;59.70;;;;;;6112296;28;80305;-64
2021/08/24 02:07:45;;;;;;;8.85;6.10;;;25.10;59.80;;;;;;6094814;28;82079;-64
2021/08/24 02:10:45;;;;;;;11.85;6.47;;;25.10;59.60;;;;;;6095068;28;81586;-64
2021/08/24 02:13:46;;;;;;;9.98;6.20;;;25.10;59.90;;;;;;6122540;28;81857;-64
2021/08/24 02:16:46;;;;;;;8.73;6.18;;;25.10;59.60;;;;;;6110978;28;80912;-64
2021/08/24 02:19:47;;;;;;;11.98;6.85;;;25.10;59.50;;;;;;6112006;28;80581;-64
2021/08/24 02:22:47;;;;;;;7.75;5.43;;;25.10;59.40;;;;;;6110062;28;80661;-64
2021/08/24 02:25:48;;;;;;;11.00;6.75;;;25.10;59.60;;;;;;6112463;28;81110;-65
2021/08/24 02:28:48;;;;;;;9.27;6.35;;;25.10;59.50;;;;;;6112307;28;80746;-64
2021/08/24 02:31:49;;;;;;;9.05;6.47;;;25.10;59.50;;;;;;6109588;28;81616;-64
2021/08/24 02:34:49;;;;;;;8.10;6.50;;;25.10;59.50;;;;;;6112072;28;81465;-64
2021/08/24 02:37:50;;;;;;;8.60;6.32;;;25.10;59.60;;;;;;6111080;28;81159;-64
2021/08/24 02:40:50;;;;;;;12.10;6.95;;;25.10;59.70;;;;;;6111407;28;80565;-64
2021/08/24 02:43:51;;;;;;;8.65;6.47;;;25.10;59.60;;;;;;6087953;28;83312;-64
2021/08/24 02:46:52;;;;;;;10.55;6.88;;;25.10;59.60;;;;;;6112276;28;81883;-64
2021/08/24 02:49:52;;;;;;;9.23;6.03;;;25.10;59.70;;;;;;6111002;28;81381;-64
2021/08/24 02:52:53;;;;;;;9.48;6.65;;;25.10;59.70;;;;;;6113242;28;80853;-64
2021/08/24 02:55:53;;;;;;;10.00;6.63;;;25.10;59.50;;;;;;6108897;28;80293;-64
2021/08/24 02:58:54;;;;;;;11.73;6.53;;;25.10;59.70;;;;;;6111858;28;80739;-65
2021/08/24 03:01:55;;;;;;;8.88;6.57;;;25.10;59.50;;;;;;6112231;28;80523;-65
2021/08/24 03:04:56;;;;;;;8.63;6.00;;;25.10;59.60;;;;;;6111047;28;81831;-65
2021/08/24 03:07:56;;;;;;;8.40;6.63;;;25.10;59.60;;;;;;6094856;28;81443;-64
2021/08/24 03:10:57;;;;;;;14.18;6.93;;;25.10;59.50;;;;;;6112535;28;81132;-65
2021/08/24 03:13:58;;;;;;;13.18;6.65;;;25.10;59.50;;;;;;6094335;28;80547;-64
2021/08/24 03:16:59;;;;;;;13.80;7.45;;;25.10;59.50;;;;;;6077819;28;80336;-64
2021/08/24 03:19:59;;;;;;;13.75;7.15;;;25.10;59.40;;;;;;6111406;28;81828;-64
2021/08/24 03:23:00;;;;;;;12.15;6.53;;;25.10;59.60;;;;;;6109823;28;80536;-64
2021/08/24 03:26:00;;;;;;;10.07;6.63;;;25.10;59.60;;;;;;6109271;28;82443;-64
2021/08/24 03:29:01;;;;;;;10.95;6.38;;;25.10;59.70;;;;;;6109766;28;81720;-64
2021/08/24 03:32:01;;;;;;;13.00;7.18;;;25.00;59.40;;;;;;6093584;28;81692;-65
2021/08/24 03:35:02;;;;;;;10.02;6.82;;;25.00;59.40;;;;;;6111756;28;81698;-64
2021/08/24 03:38:02;;;;;;;9.77;6.78;;;25.10;59.40;;;;;;6107656;28;81845;-65
2021/08/24 03:41:03;;;;;;;8.25;6.30;;;25.00;59.50;;;;;;6110731;28;81487;-65
2021/08/24 03:44:03;;;;;;;9.93;6.38;;;25.10;59.60;;;;;;6108307;28;80645;-65
2021/08/24 03:47:04;;;;;;;9.88;7.25;;;25.10;59.70;;;;;;6111077;28;81815;-64
2021/08/24 03:50:04;;;;;;;10.55;6.88;;;25.10;59.90;;;;;;6102858;28;82571;-64
2021/08/24 03:53:05;;;;;;;12.18;6.47;;;25.10;59.80;;;;;;6093043;28;80482;-64
2021/08/24 03:56:06;;;;;;;11.35;6.85;;;25.10;59.90;;;;;;6084710;28;80878;-65
2021/08/24 03:59:06;;;;;;;9.95;7.15;;;25.00;59.80;;;;;;6101660;28;80720;-64
2021/08/24 04:02:07;;;;;;;12.88;7.80;;;25.00;59.90;;;;;;6079203;28;81338;-65
2021/08/24 04:05:07;;;;;;;13.85;7.57;;;25.00;59.90;;;;;;6084801;28;80534;-64
2021/08/24 04:08:07;;;;;;;17.42;7.00;;;25.10;60.00;;;;;;6085046;28;80444;-65
2021/08/24 04:11:08;;;;;;;13.95;6.80;;;25.00;60.00;;;;;;6100564;28;80534;-65
2021/08/24 04:14:09;;;;;;;12.05;6.53;;;25.00;60.00;;;;;;6090476;28;81366;-65
2021/08/24 04:17:09;;;;;;;8.63;6.45;;;25.10;60.10;;;;;;6111793;28;80371;-65
2021/08/24 04:20:09;;;;;;;14.70;6.57;;;25.10;60.00;;;;;;6098258;28;81719;-65
2021/08/24 04:23:10;;;;;;;8.77;6.72;;;25.10;59.80;;;;;;6084522;28;83225;-65
2021/08/24 04:26:10;;;;;;;10.32;6.50;;;25.00;60.60;;;;;;6095653;28;80423;-64
2021/08/24 04:29:11;;;;;;;12.05;6.60;;;25.00;59.80;;;;;;6088421;28;80315;-64
2021/08/24 04:32:11;;;;;;;8.55;6.22;;;25.10;60.00;;;;;;6083979;28;80605;-65
2021/08/24 04:35:12;;;;;;;10.95;6.50;;;25.10;59.90;;;;;;6099758;28;80452;-64
2021/08/24 04:38:13;;;;;;;10.80;6.85;;;25.10;59.70;;;;;;6077223;28;82894;-66
2021/08/24 04:41:13;;;;;;;9.93;6.32;;;25.10;59.70;;;;;;6101651;28;80747;-66
2021/08/24 04:44:14;;;;;;;9.68;6.22;;;25.10;59.70;;;;;;6109656;28;81821;-65
2021/08/24 04:47:14;;;;;;;10.77;6.43;;;25.10;59.70;;;;;;6108058;28;84361;-66
2021/08/24 04:50:14;;;;;;;11.23;6.75;;;25.10;59.50;;;;;;6112488;28;80791;-65
2021/08/24 04:53:15;;;;;;;13.48;6.65;;;25.10;59.80;;;;;;6110181;28;82069;-66
2021/08/24 04:56:15;;;;;;;12.38;7.00;;;25.10;60.60;;;;;;6109523;28;80199;-65
2021/08/24 04:59:16;;;;;;;12.80;7.00;;;25.10;60.10;;;;;;6108627;28;80480;-65
2021/08/24 05:02:18;;;;;;;13.75;7.72;;;25.10;60.10;;;;;;6108850;28;81457;-65
2021/08/24 05:05:18;;;;;;;14.70;7.75;;;25.10;59.80;;;;;;6107960;28;81634;-65
2021/08/24 05:08:19;;;;;;;14.07;6.85;;;25.10;59.40;;;;;;6089962;28;80997;-65
2021/08/24 05:11:19;;;;;;;15.35;8.10;;;25.10;59.70;;;;;;6110516;28;80404;-66
2021/08/24 05:14:21;;;;;;;11.90;7.47;;;25.10;59.60;;;;;;6106476;28;80105;-66
2021/08/24 05:17:22;;;;;;;13.38;7.72;;;25.10;60.00;;;;;;6107765;28;80523;-66
2021/08/24 05:20:22;;;;;;;11.50;7.60;;;25.20;59.80;;;;;;6107853;28;80304;-67
2021/08/24 05:23:23;;;;;;;12.32;7.35;;;25.20;59.80;;;;;;6091048;28;82198;-65
2021/08/24 05:26:24;;;;;;;17.70;8.25;;;25.20;59.80;;;;;;6099079;28;81563;-66
2021/08/24 05:29:24;;;;;;;12.55;7.97;;;25.20;59.90;;;;;;6109647;28;81143;-66
2021/08/24 05:32:24;;;;;;;10.95;7.55;;;25.20;59.90;;;;;;6108999;28;81300;-66
2021/08/24 05:35:25;;;;;;;12.20;8.00;;;25.10;59.90;;;;;;6093438;28;81863;-66
2021/08/24 05:38:25;;;;;;;15.65;8.68;;;25.20;59.90;;;;;;6110338;28;80594;-65
2021/08/24 05:41:26;;;;;;;13.30;7.45;;;25.20;59.90;;;;;;6111703;28;80920;-65
2021/08/24 05:44:26;;;;;;;15.75;8.57;;;25.20;59.80;;;;;;6109353;28;80923;-65
2021/08/24 05:47:27;;;;;;;13.85;8.25;;;25.20;59.70;;;;;;6112006;28;81743;-65
2021/08/24 05:50:27;;;;;;;13.30;8.68;;;25.20;59.70;;;;;;6110212;28;80642;-68
2021/08/24 05:53:28;;;;;;;17.40;9.52;;;25.20;59.90;;;;;;6110584;28;80439;-64
2021/08/24 05:56:28;;;;;;;15.15;9.32;;;25.20;60.30;;;;;;6091592;28;81539;-64
2021/08/24 05:59:29;;;;;;;14.45;9.18;;;25.20;60.00;;;;;;6108707;28;80415;-64
2021/08/24 06:02:29;;;;;;;13.55;8.98;;;25.20;59.90;;;;;;6112510;28;80601;-64
2021/08/24 06:05:30;;;;;;;13.45;8.25;;;25.10;59.90;;;;;;6113288;28;81506;-64
2021/08/24 06:08:30;;;;;;;16.05;8.80;;;25.20;60.20;;;;;;6113829;28;81015;-64
2021/08/24 06:11:31;;;;;;;14.07;9.10;;;25.20;60.10;;;;;;6113188;28;80612;-64
2021/08/24 06:14:31;;;;;;;12.77;8.55;;;25.10;60.00;;;;;;6115308;28;80524;-64
2021/08/24 06:17:31;;;;;;;14.35;8.95;;;25.10;60.00;;;;;;6111701;28;81580;-64
2021/08/24 06:20:32;;;;;;;15.07;9.30;;;25.10;59.70;;;;;;6101596;28;81075;-64
2021/08/24 06:23:33;;;;;;;12.15;8.43;;;25.10;60.00;;;;;;6111637;28;80419;-64
2021/08/24 06:26:33;;;;;;;12.95;8.48;;;25.10;59.90;;;;;;6107853;28;81613;-65
2021/08/24 06:29:34;;;;;;;12.25;8.20;;;25.10;59.70;;;;;;6114017;28;80789;-64
2021/08/24 06:32:34;;;;;;;16.30;8.98;;;25.10;60.10;;;;;;6115085;28;84358;-62
2021/08/24 06:35:34;;;;;;;13.13;8.43;;;25.10;60.00;;;;;;6114423;28;81453;-64
2021/08/24 06:38:35;;;;;;;14.63;8.82;;;25.10;60.10;;;;;;6111913;28;81857;-65
2021/08/24 06:41:36;;;;;;;9.70;7.10;;;25.00;60.10;;;;;;6112957;28;80258;-64
2021/08/24 06:44:37;;;;;;;14.05;8.57;;;25.00;60.30;;;;;;6112630;28;80895;-67
2021/08/24 06:47:38;;;;;;;12.52;7.80;;;25.00;60.30;;;;;;6111267;28;82270;-64
2021/08/24 06:50:38;;;;;;;11.25;6.70;;;25.10;60.50;;;;;;6097602;28;81211;-65
2021/08/24 06:53:41;;;;;;;9.23;4.10;;;25.00;60.70;;;;;;6113356;28;80288;-66
2021/08/24 06:56:41;;;;;;;4.00;2.30;;;25.00;60.00;;;;;;6109271;28;80573;-65
2021/08/24 06:59:41;;;;;;;4.85;2.47;;;25.00;58.90;;;;;;6111148;28;80461;-65
2021/08/24 07:02:42;;;;;;;5.78;2.63;;;24.90;58.70;;;;;;6113718;28;80376;-65
2021/08/24 07:05:42;;;;;;;2.75;2.33;;;24.90;59.00;;;;;;6093259;28;83003;-65
2021/08/24 07:08:43;;;;;;;4.32;2.60;;;25.00;59.10;;;;;;6095304;28;81164;-65
2021/08/24 07:11:43;;;;;;;5.68;3.03;;;24.90;58.80;;;;;;6112230;28;81462;-66
2021/08/24 07:14:44;;;;;;;3.78;2.30;;;24.90;59.00;;;;;;6113797;28;80473;-65
2021/08/24 07:17:44;;;;;;;2.90;2.10;;;25.00;59.00;;;;;;6114733;28;81408;-65
2021/08/24 07:20:45;;;;;;;6.90;2.03;;;25.00;59.40;;;;;;6111806;28;81931;-64
2021/08/24 07:23:46;;;;;;;12.65;2.47;;;25.00;59.10;;;;;;6107860;28;81176;-64
2021/08/24 07:26:48;;;;;;;4.70;2.75;;;25.00;59.30;;;;;;6090628;28;81518;-64
2021/08/24 07:29:49;;;;;;;3.67;2.30;;;25.00;59.20;;;;;;6109126;28;81025;-64
2021/08/24 07:32:49;;;;;;;7.57;1.70;;;25.00;59.00;;;;;;6108264;28;80202;-64
2021/08/24 07:35:50;;;;;;;7.38;2.28;;;25.00;59.40;;;;;;6109872;28;81562;-65
2021/08/24 07:38:50;;;;;;;3.25;1.98;;;25.10;59.30;;;;;;6094394;28;82021;-65
2021/08/24 07:41:52;;;;;;;3.75;1.92;;;25.10;59.60;;;;;;6110192;28;80470;-64
2021/08/24 07:44:52;;;;;;;7.78;1.90;;;25.10;59.10;;;;;;6110809;28;80679;-64
2021/08/24 07:47:53;;;;;;;4.85;2.10;;;25.10;59.00;;;;;;6111316;28;81123;-64
2021/08/24 07:50:53;;;;;;;2.30;1.73;;;25.10;59.00;;;;;;6108481;28;81439;-63
2021/08/24 07:53:54;;;;;;;4.13;1.65;;;25.10;58.90;;;;;;6106509;28;80920;-64
2021/08/24 07:56:54;;;;;;;1.85;1.35;;;25.10;59.20;;;;;;6109054;28;81635;-64
2021/08/24 07:59:55;;;;;;;9.07;2.08;;;25.10;58.90;;;;;;6109903;28;81555;-64
2021/08/24 08:02:55;;;;;;;4.20;1.80;;;25.10;58.90;;;;;;6087142;28;81733;-63
2021/08/24 08:05:56;;;;;;;2.25;1.20;;;25.10;59.10;;;;;;6105493;28;81159;-63
2021/08/24 08:08:56;;;;;;;1.63;1.05;;;25.00;56.80;;;;;;6109919;28;81596;-63
2021/08/24 08:11:57;;;;;;;1.88;1.25;;;25.00;56.50;;;;;;6090380;28;81100;-64
2021/08/24 08:14:58;;;;;;;2.88;0.95;;;25.00;56.50;;;;;;6108077;28;81480;-63
2021/08/24 08:17:58;;;;;;;1.20;1.10;;;24.90;56.20;;;;;;6108441;28;80791;-63
2021/08/24 08:20:59;;;;;;;1.23;1.10;;;24.90;56.10;;;;;;6091542;28;82941;-63
2021/08/24 08:24:00;;;;;;;2.05;1.02;;;24.90;56.40;;;;;;6088267;28;83490;-66
2021/08/24 08:27:01;;;;;;;1.92;1.35;;;24.90;56.40;;;;;;6108054;28;81639;-64
2021/08/24 08:30:01;;;;;;;1.77;1.30;;;24.90;56.30;;;;;;6101808;28;80404;-63
2021/08/24 08:33:02;;;;;;;1.20;1.10;;;24.90;56.70;;;;;;6092056;28;83274;-64
2021/08/24 08:36:02;;;;;;;1.60;1.02;;;24.90;56.70;;;;;;6109181;28;81441;-64
2021/08/24 08:39:03;;;;;;;3.78;1.20;;;25.00;56.90;;;;;;6109418;28;80524;-64
2021/08/24 08:42:04;;;;;;;1.20;1.10;;;25.00;56.70;;;;;;6109499;28;80990;-66
2021/08/24 08:45:05;;;;;;;1.13;1.02;;;25.00;56.80;;;;;;6110442;28;80148;-66
2021/08/24 08:48:05;;;;;;;1.15;1.05;;;25.00;56.80;;;;;;6107915;28;80563;-66
2021/08/24 08:51:06;;;;;;;1.77;1.10;;;25.00;56.40;;;;;;6093075;28;80539;-66
2021/08/24 08:54:06;;;;;;;3.75;1.50;;;25.00;56.40;;;;;;6107614;28;81354;-66
2021/08/24 08:57:09;;;;;;;3.47;1.90;;;25.00;56.60;;;;;;6109439;28;81836;-66
2021/08/24 09:00:10;;;;;;;5.30;2.00;;;24.90;56.90;;;;;;6107961;28;85269;-66
2021/08/24 09:03:10;;;;;;;5.97;2.20;;;25.00;57.30;;;;;;6108020;28;80489;-66
2021/08/24 09:06:11;;;;;;;4.95;1.85;;;24.90;57.40;;;;;;6106501;28;80843;-66
2021/08/24 09:09:11;;;;;;;4.55;1.90;;;25.00;57.60;;;;;;6102223;28;80491;-66
2021/08/24 09:12:12;;;;;;;4.25;1.80;;;24.90;58.40;;;;;;6092021;28;81290;-66
2021/08/24 09:15:13;;;;;;;5.93;2.22;;;24.90;58.50;;;;;;6108721;28;80757;-66
2021/08/24 09:18:13;;;;;;;4.63;2.00;;;24.90;59.00;;;;;;6105897;28;82863;-66
2021/08/24 09:21:14;;;;;;;6.68;2.35;;;25.00;60.60;;;;;;6108650;28;80598;-67
2021/08/24 09:24:14;;;;;;;7.47;1.90;;;25.00;61.70;;;;;;6106638;28;81621;-67
2021/08/24 09:27:15;;;;;;;4.25;1.95;;;25.10;62.90;;;;;;6090075;28;87816;-67
2021/08/24 09:30:16;;;;;;;4.35;2.15;;;25.10;62.30;;;;;;6107846;28;80112;-66
2021/08/24 09:33:16;;;;;;;3.78;1.73;;;25.10;63.60;;;;;;6112258;28;80365;-67
2021/08/24 09:36:17;;;;;;;4.05;1.90;;;25.10;60.60;;;;;;6077407;28;80288;-68
2021/08/24 09:39:18;;;;;;;3.67;1.60;;;25.10;59.20;;;;;;6072624;28;80850;-68
2021/08/24 09:42:18;;;;;;;3.60;1.67;;;25.10;59.10;;;;;;6087563;28;81425;-66
2021/08/24 09:45:19;;;;;;;4.00;1.40;;;25.10;59.00;;;;;;6088535;28;80965;-66
2021/08/24 09:48:19;;;;;;;5.55;1.42;;;25.10;58.70;;;;;;6086022;28;80993;-66
2021/08/24 09:51:20;;;;;;;1.95;1.40;;;25.10;58.80;;;;;;6083452;28;81585;-66
2021/08/24 09:54:20;;;;;;;2.20;1.42;;;25.10;58.80;;;;;;6087157;28;80489;-66
2021/08/24 09:57:21;;;;;;;4.50;2.05;;;25.10;58.30;;;;;;6078950;28;80616;-66
2021/08/24 10:00:21;;;;;;;3.53;1.33;;;25.00;58.30;;;;;;6085263;28;80559;-66
2021/08/24 10:03:22;;;;;;;2.85;1.50;;;25.10;58.00;;;;;;6086694;28;81608;-66
2021/08/24 10:06:22;;;;;;;4.80;1.20;;;25.10;58.30;;;;;;6085296;28;80910;-66
2021/08/24 10:09:23;;;;;;;1.60;1.50;;;25.10;59.10;;;;;;6086725;28;80611;-65
2021/08/24 10:12:23;;;;;;;2.15;1.25;;;25.10;59.00;;;;;;6082893;28;80745;-65
2021/08/24 10:15:24;;;;;;;1.92;1.30;;;25.10;58.80;;;;;;6101211;28;81316;-65
2021/08/24 10:18:24;;;;;;;4.78;1.20;;;25.10;58.90;;;;;;6089087;28;80441;-65
2021/08/24 10:21:25;;;;;;;4.50;1.23;;;25.10;58.90;;;;;;6087661;28;81320;-65
2021/08/24 10:24:25;;;;;;;2.67;1.40;;;25.10;58.80;;;;;;6068424;28;82192;-66
2021/08/24 10:27:26;;;;;;;3.20;1.73;;;25.10;58.30;;;;;;6085281;28;80637;-67
2021/08/24 10:30:26;;;;;;;2.28;1.00;;;25.10;58.50;;;;;;6085597;28;80706;-68
2021/08/24 10:33:27;;;;;;;6.03;1.30;;;25.10;58.10;;;;;;6086054;28;80622;-68
2021/08/24 10:36:27;;;;;;;3.47;1.30;;;25.10;57.90;;;;;;6083297;28;80677;-66
2021/08/24 10:39:28;;;;;;;4.10;1.25;;;25.10;58.10;;;;;;6087121;28;83729;-67
2021/08/24 10:42:28;;;;;;;3.33;1.13;;;25.10;57.60;;;;;;6085524;28;81399;-68
2021/08/24 10:45:29;;;;;;;2.72;1.30;;;25.10;57.80;;;;;;6085790;28;80573;-68
2021/08/24 10:48:29;;;;;;;5.97;1.48;;;25.10;57.70;;;;;;6087687;28;80308;-64
2021/08/24 10:51:31;;;;;;;7.20;1.40;;;25.10;57.50;;;;;;6087580;28;80303;-67
2021/08/24 10:54:31;;;;;;;2.50;1.50;;;25.10;57.60;;;;;;6086991;28;80534;-66
2021/08/24 10:57:32;;;;;;;2.22;1.20;;;25.10;57.20;;;;;;6088217;28;80565;-67
2021/08/24 11:00:32;;;;;;;3.35;1.20;;;25.10;57.30;;;;;;6086780;28;81935;-67
2021/08/24 11:03:33;;;;;;;3.00;1.30;;;25.10;57.50;;;;;;6087462;28;80191;-67
2021/08/24 11:06:33;;;;;;;5.20;1.35;;;25.10;57.00;;;;;;6086037;28;81056;-68
2021/08/24 11:09:33;;;;;;;1.88;1.33;;;25.10;57.20;;;;;;6086599;28;80756;-68
2021/08/24 11:12:34;;;;;;;4.13;1.35;;;25.10;57.00;;;;;;6086438;28;82052;-65
2021/08/24 11:15:34;;;;;;;4.28;1.40;;;25.10;57.30;;;;;;6085498;28;80837;-65
2021/08/24 11:18:35;;;;;;;5.05;1.52;;;25.10;57.20;;;;;;6086895;28;81539;-64
2021/08/24 11:21:36;;;;;;;2.28;1.30;;;25.10;57.40;;;;;;6090632;28;80155;-65
2021/08/24 11:24:36;;;;;;;3.35;1.50;;;25.10;57.10;;;;;;6109101;28;80565;-65
2021/08/24 11:27:40;;;;;;;4.32;1.30;;;25.10;56.70;;;;;;6110725;28;80574;-64
2021/08/24 11:30:40;;;;;;;5.85;1.45;;;25.10;56.80;;;;;;6092541;28;81522;-66
2021/08/24 11:33:41;;;;;;;1.65;1.40;;;25.10;56.70;;;;;;6111390;28;81799;-65
2021/08/24 11:36:41;;;;;;;3.95;1.40;;;25.10;56.10;;;;;;6107137;28;80259;-65
2021/08/24 11:39:42;;;;;;;4.65;1.55;;;25.10;56.20;;;;;;6089422;28;81185;-64
2021/08/24 11:42:42;;;;;;;2.05;1.30;;;25.10;56.30;;;;;;6071078;28;80567;-64
2021/08/24 11:45:43;;;;;;;3.13;1.40;;;25.10;56.00;;;;;;6087353;28;80225;-64
2021/08/24 11:48:43;;;;;;;4.40;1.75;;;25.10;56.10;;;;;;6086388;28;81137;-64
2021/08/24 11:51:44;;;;;;;4.30;1.63;;;25.10;56.10;;;;;;6108023;28;80161;-65
2021/08/24 11:54:44;;;;;;;3.78;1.38;;;25.10;55.90;;;;;;6087259;28;81296;-65
2021/08/24 11:57:45;;;;;;;4.20;1.50;;;25.10;55.80;;;;;;6112064;28;80400;-66
2021/08/24 12:00:45;;;;;;;2.95;1.48;;;25.10;55.50;;;;;;6114001;28;81177;-65
2021/08/24 12:03:46;;;;;;;2.42;1.70;;;25.10;55.50;;;;;;6112048;28;81563;-66
2021/08/24 12:06:46;;;;;;;2.97;2.05;;;25.10;55.50;;;;;;6118068;28;81125;-65
2021/08/24 12:09:46;;;;;;;2.00;1.70;;;25.10;55.60;;;;;;6109124;28;80823;-66
2021/08/24 12:12:47;;;;;;;3.53;1.90;;;25.10;55.60;;;;;;6088796;28;80544;-66
2021/08/24 12:15:48;;;;;;;2.35;1.60;;;25.10;55.50;;;;;;6110415;28;80995;-66
2021/08/24 12:18:48;;;;;;;7.57;1.77;;;25.00;55.50;;;;;;6094218;28;81949;-65
2021/08/24 12:21:48;;;;;;;4.63;1.90;;;25.10;55.50;;;;;;6108165;28;80465;-65
2021/08/24 12:24:49;;;;;;;4.63;1.77;;;25.00;55.50;;;;;;6111594;28;80411;-66
2021/08/24 12:27:49;;;;;;;4.45;2.00;;;25.00;55.60;;;;;;6112539;28;81766;-67
2021/08/24 12:30:50;;;;;;;4.00;2.10;;;25.00;55.70;;;;;;6107578;28;80530;-65
2021/08/24 12:33:50;;;;;;;5.10;2.30;;;25.00;55.40;;;;;;6076072;28;81876;-66
2021/08/24 12:36:52;;;;;;;4.90;2.00;;;25.00;55.20;;;;;;6107445;28;80921;-65
2021/08/24 12:39:53;;;;;;;5.13;1.90;;;25.10;55.30;;;;;;6090345;28;81810;-66
2021/08/24 12:42:53;;;;;;;3.75;2.40;;;25.10;55.30;;;;;;6108895;28;80703;-65
2021/08/24 12:45:53;;;;;;;3.70;2.00;;;25.10;54.80;;;;;;6107862;28;81455;-65
2021/08/24 12:48:54;;;;;;;7.03;2.15;;;25.10;55.30;;;;;;6108920;28;80355;-65
2021/08/24 12:51:54;;;;;;;3.92;2.28;;;25.10;55.20;;;;;;6091648;28;81614;-63
2021/08/24 12:54:55;;;;;;;3.85;1.73;;;25.10;55.20;;;;;;6091830;28;80554;-65
2021/08/24 12:57:55;;;;;;;3.53;1.92;;;25.10;55.20;;;;;;6106295;28;80476;-67
2021/08/24 13:00:56;;;;;;;4.40;1.85;;;25.10;55.10;;;;;;6092084;28;81463;-67
2021/08/24 13:03:57;;;;;;;4.30;2.08;;;25.00;55.10;;;;;;6108317;28;80130;-66
2021/08/24 13:06:57;;;;;;;4.03;1.40;;;25.10;55.10;;;;;;6107368;28;81265;-66
2021/08/24 13:09:58;;;;;;;2.20;2.00;;;25.10;55.20;;;;;;6086556;28;80295;-66
2021/08/24 13:12:58;;;;;;;2.55;1.73;;;25.10;55.10;;;;;;6108355;28;80815;-66
2021/08/24 13:15:59;;;;;;;2.25;1.90;;;25.10;55.20;;;;;;6094617;28;80401;-65
2021/08/24 13:18:59;;;;;;;3.65;2.33;;;25.10;54.80;;;;;;6106334;28;81812;-66
2021/08/24 13:22:00;;;;;;;6.07;1.80;;;25.10;55.00;;;;;;6104160;28;81133;-64
2021/08/24 13:25:00;;;;;;;2.45;1.70;;;25.10;54.90;;;;;;6102517;28;81634;-66
2021/08/24 13:28:01;;;;;;;3.83;2.00;;;25.10;55.10;;;;;;6103011;28;80749;-67
2021/08/24 13:31:01;;;;;;;3.88;1.98;;;25.10;55.10;;;;;;6103800;28;80582;-67
2021/08/24 13:34:02;;;;;;;3.15;1.92;;;25.10;54.70;;;;;;6104497;28;80566;-66
2021/08/24 13:37:02;;;;;;;3.35;1.90;;;25.10;55.10;;;;;;6102843;28;80869;-67
2021/08/24 13:40:06;;;;;;;2.55;1.75;;;25.10;55.10;;;;;;6104938;28;80374;-67
2021/08/24 13:43:06;;;;;;;1.90;1.60;;;25.10;55.40;;;;;;6100442;28;81954;-67
2021/08/24 13:46:07;;;;;;;2.20;1.80;;;25.10;55.40;;;;;;6083518;28;80498;-67
2021/08/24 13:49:08;;;;;;;1.85;1.65;;;25.10;55.80;;;;;;6079151;28;80410;-66
2021/08/24 13:52:11;;;;;;;7.72;2.35;;;25.00;55.90;;;;;;6081535;28;80905;-66
2021/08/24 13:55:11;;;;;;;8.32;4.60;;;25.00;56.30;;;;;;6080790;28;81183;-67
2021/08/24 13:58:12;;;;;;;23.88;20.55;;;25.00;56.70;;;;;;6081549;28;80406;-67
2021/08/24 14:01:12;;;;;;;12.80;11.43;;;25.00;56.80;;;;;;6080899;28;83647;-67
2021/08/24 14:04:13;;;;;;;8.65;6.05;;;25.00;56.80;;;;;;6074765;28;83347;-66
2021/08/24 14:07:13;;;;;;;9.85;8.02;;;25.10;57.00;;;;;;6078144;28;83332;-67
2021/08/24 14:10:14;;;;;;;10.27;8.73;;;25.10;57.00;;;;;;6082986;28;80375;-67
2021/08/24 14:13:18;;;;;;;14.27;10.85;;;25.00;57.00;;;;;;6076852;28;83981;-66
2021/08/24 14:16:18;;;;;;;14.10;11.23;;;25.00;57.00;;;;;;6083980;28;83232;-67
2021/08/24 14:19:25;;;;;;;14.90;11.95;;;25.00;57.70;;;;;;6084013;28;84295;-66
2021/08/24 14:22:27;;;;;;;12.63;11.10;;;25.00;57.70;;;;;;6084731;28;83915;-67
2021/08/24 14:25:27;;;;;;;14.65;10.63;;;25.00;57.50;;;;;;6083332;28;83422;-66
2021/08/24 14:28:28;;;;;;;15.70;11.45;;;25.10;57.30;;;;;;6081223;28;83842;-66
2021/08/24 14:31:33;;;;;;;13.85;11.15;;;25.10;57.20;;;;;;6083242;28;83278;-67
2021/08/24 14:34:33;;;;;;;12.57;10.80;;;25.10;57.30;;;;;;6084195;28;83133;-66
2021/08/24 14:37:34;;;;;;;11.38;9.35;;;25.10;57.40;;;;;;6082858;28;82951;-65
2021/08/24 14:40:34;;;;;;;10.98;9.73;;;25.10;57.50;;;;;;6084709;28;83100;-66
2021/08/24 14:43:35;;;;;;;8.10;7.30;;;25.00;57.60;;;;;;6085461;28;80928;-66
2021/08/24 14:46:35;;;;;;;8.13;6.85;;;25.10;57.00;;;;;;6086031;28;81132;-66
2021/08/24 14:49:36;;;;;;;9.50;6.78;;;25.10;56.70;;;;;;6095200;28;81892;-64
2021/08/24 14:52:36;;;;;;;9.20;6.95;;;25.10;56.50;;;;;;6107267;28;80088;-66
2021/08/24 14:55:37;;;;;;;8.05;6.53;;;25.10;56.30;;;;;;6093560;28;82883;-65
2021/08/24 14:58:37;;;;;;;7.32;5.75;;;25.10;56.30;;;;;;6106967;28;80631;-65
2021/08/24 15:01:38;;;;;;;7.93;6.45;;;25.10;56.50;;;;;;6111520;28;81553;-66
2021/08/24 15:04:38;;;;;;;11.68;6.03;;;25.10;56.50;;;;;;6092705;28;80449;-66
2021/08/24 15:07:39;;;;;;;10.25;5.22;;;25.10;56.90;;;;;;6109921;28;80483;-66
2021/08/24 15:10:39;;;;;;;6.28;5.20;;;25.00;57.00;;;;;;6111047;28;80594;-67
2021/08/24 15:13:40;;;;;;;6.07;4.72;;;25.00;57.10;;;;;;6114988;28;81216;-66
2021/08/24 15:16:45;;;;;;;5.35;4.45;;;25.00;57.30;;;;;;6113902;28;80671;-65
2021/08/24 15:19:45;;;;;;;8.38;4.60;;;25.00;57.40;;;;;;6112618;28;80553;-65
2021/08/24 15:22:45;;;;;;;5.68;3.88;;;25.00;57.50;;;;;;6111593;28;80750;-66
2021/08/24 15:25:46;;;;;;;6.78;3.97;;;25.10;57.70;;;;;;6111207;28;81140;-65
2021/08/24 15:28:46;;;;;;;26.88;4.68;;;25.10;58.10;;;;;;6095276;28;80577;-66
2021/08/24 15:31:47;;;;;;;4.30;3.38;;;25.10;57.70;;;;;;6112518;28;81411;-65
2021/08/24 15:34:47;;;;;;;7.38;3.75;;;25.10;58.10;;;;;;6113853;28;86215;-68